Time;durP1;ratioP1;P1;durP2;ratioP2;P2;SDS_P1;SDS_P2;PMS_P1;PMS_P2;Temp;Humidity;BMP_temperature;BMP_pressure;BME280_temperature;BME280_humidity;BME280_pressure;Samples;Min_cycle;Max_cycle;Signal;HPM_P1;HPM_P2
2022/08/14 00:01:09;;;;;;;4.63;3.83;;;23.20;97.50;;;;;;5055606;28;20048;-74
2022/08/14 00:03:34;;;;;;;5.93;4.18;;;23.10;97.50;;;;;;5037624;28;20036;-74
2022/08/14 00:06:02;;;;;;;7.35;3.88;;;23.10;97.60;;;;;;5055033;28;20032;-73
2022/08/14 00:08:28;;;;;;;4.90;4.00;;;23.00;97.70;;;;;;5054188;28;20410;-74
2022/08/14 00:10:53;;;;;;;4.57;3.75;;;25.20;98.30;;;;;;5055471;28;20033;-73
2022/08/14 00:13:22;;;;;;;7.20;4.25;;;23.10;97.80;;;;;;5054002;28;20036;-74
2022/08/14 00:15:49;;;;;;;5.32;3.85;;;23.80;97.90;;;;;;5053834;28;20041;-74
2022/08/14 00:18:18;;;;;;;10.40;4.75;;;23.00;97.80;;;;;;5037658;28;20127;-74
2022/08/14 00:20:44;;;;;;;5.95;4.22;;;22.90;97.90;;;;;;5053943;28;20170;-74
2022/08/14 00:23:12;;;;;;;6.05;4.20;;;22.70;97.80;;;;;;5053970;28;20127;-74
2022/08/14 00:25:38;;;;;;;8.77;4.43;;;22.80;98.00;;;;;;5053387;28;20040;-74
2022/08/14 00:28:08;;;;;;;6.38;4.63;;;23.50;98.20;;;;;;5055243;28;20144;-74
2022/08/14 00:30:33;;;;;;;5.28;4.72;;;22.90;98.00;;;;;;5053827;28;20044;-74
2022/08/14 00:32:59;;;;;;;6.03;4.30;;;22.70;98.10;;;;;;5053705;28;20037;-74
2022/08/14 00:35:25;;;;;;;5.70;3.92;;;22.70;98.10;;;;;;5036492;28;20047;-73
2022/08/14 00:37:50;;;;;;;8.77;4.50;;;22.70;98.20;;;;;;5036982;28;20044;-74
2022/08/14 00:40:18;;;;;;;5.28;4.70;;;22.70;98.20;;;;;;5053666;28;20035;-74
2022/08/14 00:42:44;;;;;;;8.75;4.70;;;23.20;98.40;;;;;;5053805;28;20045;-73
2022/08/14 00:45:11;;;;;;;11.38;4.63;;;22.50;98.20;;;;;;5053407;28;20035;-73
2022/08/14 00:47:38;;;;;;;6.97;4.53;;;22.50;98.20;;;;;;5053861;28;20521;-74
2022/08/14 00:50:06;;;;;;;6.28;4.18;;;22.60;98.30;;;;;;5053672;28;20084;-74
2022/08/14 00:52:33;;;;;;;12.57;5.15;;;22.60;98.30;;;;;;5053362;28;20051;-74
2022/08/14 00:54:59;;;;;;;7.53;5.30;;;23.40;98.70;;;;;;5053364;28;20376;-73
2022/08/14 00:57:28;;;;;;;7.45;4.53;;;22.60;98.70;;;;;;5036941;28;20086;-73
2022/08/14 00:59:56;;;;;;;6.57;4.45;;;22.50;99.10;;;;;;5054655;28;20033;-73
2022/08/14 01:02:23;;;;;;;6.18;5.28;;;23.40;99.20;;;;;;5054768;28;20080;-73
2022/08/14 01:04:51;;;;;;;9.20;4.95;;;22.50;99.10;;;;;;5054516;28;20094;-74
2022/08/14 01:07:20;;;;;;;5.60;4.90;;;22.30;99.30;;;;;;5035711;28;20407;-74
2022/08/14 01:09:54;;;;;;;5.80;4.63;;;22.60;99.40;;;;;;5054477;28;20166;-73
2022/08/14 01:12:21;;;;;;;6.85;5.07;;;22.50;99.40;;;;;;5036294;28;20037;-73
2022/08/14 01:14:51;;;;;;;8.93;5.38;;;;;;;;;;5036639;28;20390;-74
2022/08/14 01:17:17;;;;;;;7.35;5.55;;;22.10;99.90;;;;;;5054258;28;20079;-74
2022/08/14 01:22:27;;;;;;;8.88;4.72;;;22.10;99.60;;;;;;5054137;28;20049;-73
2022/08/14 01:24:52;;;;;;;6.03;5.43;;;22.40;99.90;;;;;;5035763;28;20045;-73
2022/08/14 01:27:21;;;;;;;6.05;5.45;;;22.20;99.80;;;;;;5052544;28;20418;-74
2022/08/14 01:29:49;;;;;;;7.40;5.25;;;20.40;99.40;;;;;;5052942;28;20045;-74
2022/08/14 01:32:17;;;;;;;6.47;5.88;;;21.90;99.70;;;;;;5035960;28;20045;-74
2022/08/14 01:34:46;;;;;;;8.82;5.97;;;22.30;99.90;;;;;;5052539;28;20059;-73
2022/08/14 01:37:11;;;;;;;9.27;6.13;;;22.50;99.90;;;;;;5035887;28;20098;-74
2022/08/14 01:39:37;;;;;;;9.15;5.70;;;22.10;99.80;;;;;;5052592;28;20036;-73
2022/08/14 01:42:04;;;;;;;10.23;6.72;;;23.00;99.90;;;;;;5036116;28;20045;-73
2022/08/14 01:44:30;;;;;;;8.70;6.28;;;22.10;99.70;;;;;;5052205;28;20041;-73
2022/08/14 01:46:58;;;;;;;11.60;6.82;;;22.20;99.90;;;;;;5035784;28;20099;-73
2022/08/14 01:49:24;;;;;;;9.65;6.63;;;22.10;99.90;;;;;;5035812;28;20048;-73
2022/08/14 01:51:55;;;;;;;11.52;6.45;;;22.00;99.90;;;;;;5035836;28;20387;-73
2022/08/14 01:54:22;;;;;;;9.10;6.05;;;22.80;99.90;;;;;;5052400;28;20531;-73
2022/08/14 01:56:55;;;;;;;6.10;5.50;;;21.70;99.90;;;;;;5053467;28;20056;-73
2022/08/14 01:59:31;;;;;;;8.88;6.53;;;21.90;99.90;;;;;;5053370;28;20384;-73
2022/08/14 02:02:02;;;;;;;9.73;7.00;;;21.60;99.90;;;;;;5052388;28;20055;-73
2022/08/14 02:04:32;;;;;;;7.82;6.30;;;22.00;99.90;;;;;;5035518;28;20032;-74
2022/08/14 02:06:58;;;;;;;8.73;6.03;;;21.90;99.90;;;;;;5051987;28;20427;-74
2022/08/14 02:09:24;;;;;;;9.50;6.38;;;22.70;99.90;;;;;;5053208;28;20040;-74
2022/08/14 02:11:51;;;;;;;6.13;5.50;;;21.80;99.90;;;;;;5053100;28;20037;-73
2022/08/14 02:14:17;;;;;;;11.15;7.35;;;21.60;99.90;;;;;;5051719;28;20085;-73
2022/08/14 02:16:51;;;;;;;7.82;6.78;;;21.70;99.90;;;;;;5052606;28;20055;-74
2022/08/14 02:19:20;;;;;;;8.25;6.55;;;21.70;99.90;;;;;;5052042;28;20041;-73
2022/08/14 02:21:47;;;;;;;7.97;6.18;;;21.70;99.90;;;;;;5035056;28;20041;-74
2022/08/14 02:24:14;;;;;;;11.60;6.97;;;22.00;99.90;;;;;;5034771;28;20128;-73
2022/08/14 02:26:48;;;;;;;12.30;6.78;;;21.80;99.90;;;;;;5052728;28;20040;-74
2022/08/14 02:29:21;;;;;;;11.05;6.70;;;21.90;99.90;;;;;;5052890;28;20047;-73
2022/08/14 02:31:49;;;;;;;12.23;7.28;;;21.60;99.90;;;;;;5034753;28;20033;-73
2022/08/14 02:34:31;;;;;;;8.20;6.70;;;22.10;99.90;;;;;;5051533;28;20490;-74
2022/08/14 02:37:08;;;;;;;14.00;8.32;;;21.60;99.90;;;;;;5051180;28;20037;-73
2022/08/14 02:39:41;;;;;;;8.13;7.18;;;21.30;99.90;;;;;;5052892;28;20041;-73
2022/08/14 02:42:11;;;;;;;8.63;7.25;;;21.50;99.90;;;;;;5034826;28;20033;-73
2022/08/14 02:44:39;;;;;;;12.13;7.28;;;21.50;99.90;;;;;;5051846;28;20087;-73
2022/08/14 02:47:07;;;;;;;9.23;7.72;;;21.80;99.90;;;;;;5052387;28;20036;-73
2022/08/14 02:49:33;;;;;;;10.27;7.07;;;21.40;99.90;;;;;;5052637;28;20048;-73
2022/08/14 02:51:59;;;;;;;12.50;8.20;;;21.50;99.90;;;;;;5052430;28;20072;-74
2022/08/14 02:54:25;;;;;;;9.73;7.57;;;21.40;99.90;;;;;;5034206;28;20076;-74
2022/08/14 02:56:56;;;;;;;8.40;7.60;;;21.20;99.90;;;;;;5052338;28;20045;-73
2022/08/14 02:59:24;;;;;;;10.25;8.05;;;21.20;99.90;;;;;;5034670;28;20037;-74
2022/08/14 03:01:49;;;;;;;11.43;8.15;;;21.50;99.90;;;;;;5053910;28;20098;-73
2022/08/14 03:04:15;;;;;;;9.65;7.13;;;21.40;99.90;;;;;;5053511;28;20045;-73
2022/08/14 03:06:42;;;;;;;10.27;7.88;;;21.30;99.90;;;;;;5052549;28;20040;-73
2022/08/14 03:09:10;;;;;;;10.45;7.68;;;21.20;99.90;;;;;;5053357;28;20041;-73
2022/08/14 03:11:37;;;;;;;8.20;7.15;;;21.20;99.90;;;;;;5052287;28;20048;-73
2022/08/14 03:14:03;;;;;;;11.35;8.98;;;21.10;99.90;;;;;;5034006;28;20247;-74
2022/08/14 03:16:34;;;;;;;10.00;7.70;;;21.20;99.90;;;;;;5051904;28;20437;-73
2022/08/14 03:19:00;;;;;;;13.25;8.05;;;21.00;99.90;;;;;;5050772;28;20033;-73
2022/08/14 03:21:28;;;;;;;12.55;8.70;;;21.40;99.90;;;;;;5052201;28;20047;-73
2022/08/14 03:26:37;;;;;;;12.27;7.93;;;21.60;99.90;;;;;;5050418;28;20056;-74
2022/08/14 03:29:05;;;;;;;11.57;8.23;;;20.90;99.90;;;;;;5049926;28;20098;-73
2022/08/14 03:31:31;;;;;;;10.63;9.15;;;21.10;99.90;;;;;;5033943;28;20044;-73
2022/08/14 03:33:57;;;;;;;12.15;8.35;;;21.00;99.90;;;;;;5050227;28;20060;-73
2022/08/14 03:36:23;;;;;;;10.73;7.32;;;20.90;99.90;;;;;;5050381;28;20041;-73
2022/08/14 03:38:52;;;;;;;10.57;7.60;;;21.00;99.90;;;;;;5050678;28;20035;-73
2022/08/14 03:41:18;;;;;;;9.82;8.10;;;;;;;;;;5050695;28;20040;-73
2022/08/14 03:43:56;;;;;;;11.95;8.18;;;20.90;99.90;;;;;;5051389;28;20041;-73
2022/08/14 03:46:25;;;;;;;11.82;8.68;;;20.80;99.90;;;;;;5033794;28;20131;-74
2022/08/14 03:48:53;;;;;;;9.95;8.73;;;20.80;99.90;;;;;;5050566;28;20556;-73
2022/08/14 03:51:19;;;;;;;10.18;8.55;;;20.90;99.90;;;;;;5050330;28;20513;-73
2022/08/14 03:53:46;;;;;;;11.52;8.68;;;20.80;99.90;;;;;;5050326;28;20041;-73
2022/08/14 03:56:14;;;;;;;10.20;7.93;;;20.70;99.90;;;;;;5033462;28;20121;-73
2022/08/14 03:58:44;;;;;;;10.35;9.25;;;21.10;99.90;;;;;;5050340;28;20041;-73
2022/08/14 04:01:10;;;;;;;9.75;8.75;;;20.60;99.90;;;;;;5033942;28;20041;-73
2022/08/14 04:03:36;;;;;;;10.70;8.80;;;20.80;99.90;;;;;;5051647;28;20102;-73
2022/08/14 04:06:02;;;;;;;10.07;8.98;;;21.50;99.90;;;;;;5050066;28;20044;-74
2022/08/14 04:08:28;;;;;;;12.52;9.95;;;20.70;99.90;;;;;;5050198;28;20040;-73
2022/08/14 04:10:55;;;;;;;12.48;10.25;;;20.50;99.90;;;;;;5051578;28;20468;-73
2022/08/14 04:13:21;;;;;;;13.35;8.98;;;20.70;99.90;;;;;;5050258;28;20037;-73
2022/08/14 04:15:46;;;;;;;9.65;8.65;;;20.80;99.90;;;;;;5049752;28;20393;-73
2022/08/14 04:18:13;;;;;;;15.50;9.93;;;20.50;99.90;;;;;;5050085;28;20040;-73
2022/08/14 04:20:41;;;;;;;10.75;9.18;;;20.50;99.90;;;;;;5051441;28;20045;-73
2022/08/14 04:23:08;;;;;;;12.27;9.95;;;20.40;99.90;;;;;;5051265;28;20041;-73
2022/08/14 04:25:35;;;;;;;13.95;9.85;;;21.80;99.90;;;;;;5033028;28;20041;-73
2022/08/14 04:28:04;;;;;;;12.07;10.20;;;20.60;99.90;;;;;;5050024;28;20049;-73
2022/08/14 04:30:38;;;;;;;14.48;9.63;;;20.70;99.90;;;;;;5051389;28;20041;-73
2022/08/14 04:33:07;;;;;;;10.88;9.48;;;20.60;99.90;;;;;;5050106;28;20040;-73
2022/08/14 04:35:34;;;;;;;11.95;10.35;;;20.70;99.90;;;;;;5049560;28;20045;-74
2022/08/14 04:43:36;;;;;;;10.55;8.88;;;21.10;99.90;;;;;;5054661;28;20499;-73
2022/08/14 04:46:07;;;;;;;12.80;8.95;;;20.60;99.90;;;;;;5036564;28;20528;-73
2022/08/14 04:48:33;;;;;;;10.95;9.80;;;20.60;99.90;;;;;;5053767;28;20056;-73
2022/08/14 04:50:59;;;;;;;13.65;9.27;;;20.70;99.90;;;;;;5054636;28;20041;-74
2022/08/14 04:53:27;;;;;;;11.85;9.82;;;20.60;99.90;;;;;;5054654;28;20037;-73
2022/08/14 04:55:54;;;;;;;13.27;10.13;;;21.60;99.90;;;;;;5036409;28;20045;-73
2022/08/14 04:58:31;;;;;;;10.55;9.43;;;20.60;99.90;;;;;;5053237;28;20072;-73
2022/08/14 05:00:58;;;;;;;10.90;8.50;;;21.30;99.90;;;;;;5053213;28;20558;-73
2022/08/14 05:03:30;;;;;;;10.85;9.52;;;20.70;99.90;;;;;;5054607;28;20090;-73
2022/08/14 05:05:58;;;;;;;13.13;9.85;;;20.70;99.90;;;;;;5052847;28;20037;-73
2022/08/14 05:08:25;;;;;;;13.02;9.70;;;20.80;99.90;;;;;;5053109;28;20514;-73
2022/08/14 05:10:53;;;;;;;10.57;9.48;;;20.60;99.90;;;;;;5036316;28;20129;-73
2022/08/14 05:13:24;;;;;;;11.77;8.45;;;20.80;99.90;;;;;;5053033;28;20414;-73
2022/08/14 05:15:51;;;;;;;14.48;10.00;;;20.70;99.90;;;;;;5054412;28;20051;-73
2022/08/14 05:18:20;;;;;;;10.82;9.40;;;21.20;99.90;;;;;;5036640;28;20037;-73
2022/08/14 05:20:49;;;;;;;11.80;10.25;;;20.90;99.90;;;;;;5052967;28;20048;-73
2022/08/14 05:23:27;;;;;;;9.77;8.15;;;21.20;99.90;;;;;;5053067;28;20139;-73
2022/08/14 05:28:30;;;;;;;11.30;9.05;;;20.90;99.90;;;;;;5032385;28;20396;-72
2022/08/14 05:30:57;;;;;;;9.30;8.40;;;21.00;99.90;;;;;;5032466;28;20046;-73
2022/08/14 05:33:27;;;;;;;12.52;9.70;;;21.00;99.90;;;;;;5016027;28;20037;-72
2022/08/14 05:35:59;;;;;;;10.57;7.97;;;22.70;99.90;;;;;;5033704;28;20118;-72
2022/08/14 05:38:27;;;;;;;13.15;9.93;;;21.10;99.90;;;;;;5015754;28;20037;-72
2022/08/14 05:40:53;;;;;;;11.95;9.95;;;21.10;99.90;;;;;;5015582;28;20041;-72
2022/08/14 05:43:19;;;;;;;10.57;8.90;;;21.00;99.90;;;;;;5016019;28;20091;-72
2022/08/14 05:45:45;;;;;;;11.02;9.52;;;21.90;99.90;;;;;;5015685;28;20132;-72
2022/08/14 05:48:14;;;;;;;9.65;8.27;;;22.90;99.90;;;;;;4999296;28;20553;-71
2022/08/14 05:50:39;;;;;;;11.52;9.35;;;21.30;99.90;;;;;;4999496;28;20049;-72
2022/08/14 05:53:05;;;;;;;9.80;8.80;;;21.40;99.90;;;;;;5032603;28;20033;-72
2022/08/14 05:55:31;;;;;;;10.35;8.80;;;21.40;99.90;;;;;;5015198;28;20037;-72
2022/08/14 05:58:03;;;;;;;10.98;8.50;;;21.60;99.90;;;;;;5015327;28;20041;-72
2022/08/14 06:00:36;;;;;;;13.37;9.33;;;23.70;99.90;;;;;;5033255;28;20042;-72
2022/08/14 06:03:04;;;;;;;8.52;7.72;;;22.10;99.90;;;;;;5033220;28;20048;-72
2022/08/14 06:05:30;;;;;;;11.10;8.15;;;21.70;99.90;;;;;;4999036;28;20045;-73
2022/08/14 06:07:58;;;;;;;10.30;7.80;;;21.80;99.90;;;;;;5015193;28;20443;-73
2022/08/14 06:10:24;;;;;;;9.45;7.93;;;22.30;99.90;;;;;;5015367;28;20033;-73
2022/08/14 06:12:50;;;;;;;9.70;8.50;;;21.90;99.90;;;;;;5015337;28;20117;-73
2022/08/14 06:15:16;;;;;;;9.23;8.30;;;21.90;99.90;;;;;;4998575;28;20091;-73
2022/08/14 06:17:50;;;;;;;9.07;8.18;;;21.90;99.90;;;;;;4998703;28;20042;-73
2022/08/14 06:20:16;;;;;;;9.15;8.20;;;22.00;99.90;;;;;;5014878;28;20041;-73
2022/08/14 06:22:43;;;;;;;11.30;8.48;;;22.10;99.90;;;;;;4998871;28;20052;-73
2022/08/14 06:25:11;;;;;;;8.43;7.63;;;22.20;99.90;;;;;;5014821;28;20044;-73
2022/08/14 06:27:41;;;;;;;9.60;7.95;;;22.50;99.90;;;;;;4998517;28;20488;-73
2022/08/14 06:30:09;;;;;;;11.75;7.47;;;22.50;99.90;;;;;;5032617;28;20037;-73
2022/08/14 06:32:36;;;;;;;9.90;8.80;;;22.40;99.90;;;;;;5032464;28;20048;-73
2022/08/14 06:35:05;;;;;;;13.68;7.60;;;23.40;99.90;;;;;;5032105;28;20569;-73
2022/08/14 06:37:48;;;;;;;9.50;8.27;;;24.20;99.90;;;;;;5032732;28;20117;-73
2022/08/14 06:40:15;;;;;;;;;;;22.70;99.90;;;;;;5015044;28;20388;-73
2022/08/14 06:42:41;;;;;;;9.80;8.40;;;22.90;99.90;;;;;;5014509;28;19923;-73
2022/08/14 06:45:08;;;;;;;10.45;7.30;;;22.90;99.90;;;;;;5031934;28;20037;-73
2022/08/14 06:47:35;;;;;;;8.35;7.40;;;22.90;99.90;;;;;;5014307;28;20037;-73
2022/08/14 06:50:05;;;;;;;10.82;7.82;;;23.30;99.90;;;;;;5014682;28;20033;-73
2022/08/14 06:52:31;;;;;;;10.23;8.18;;;23.30;99.90;;;;;;5014406;28;20069;-73
2022/08/14 06:54:56;;;;;;;9.50;8.45;;;24.10;99.90;;;;;;5031773;28;20109;-73
2022/08/14 06:57:23;;;;;;;14.52;7.18;;;23.70;99.90;;;;;;5014239;28;20045;-74
2022/08/14 06:59:49;;;;;;;8.43;7.32;;;23.50;99.90;;;;;;5031820;28;20038;-73
2022/08/14 07:07:43;;;;;;;10.43;7.05;;;23.80;99.90;;;;;;5031961;28;20510;-72
2022/08/14 07:10:10;;;;;;;8.27;6.60;;;23.70;99.90;;;;;;5031990;28;20057;-72
2022/08/14 07:12:36;;;;;;;9.07;7.35;;;23.50;99.90;;;;;;5014048;28;20042;-72
2022/08/14 07:15:02;;;;;;;10.38;7.85;;;23.90;99.90;;;;;;5031948;28;20037;-72
2022/08/14 07:17:28;;;;;;;8.20;7.13;;;24.10;99.90;;;;;;5031995;28;20390;-73
2022/08/14 07:19:54;;;;;;;7.88;7.00;;;24.10;99.90;;;;;;5014371;28;20044;-71
2022/08/14 07:22:19;;;;;;;9.07;7.40;;;25.60;99.90;;;;;;5014383;28;20402;-71
2022/08/14 07:24:45;;;;;;;8.30;7.50;;;24.80;99.90;;;;;;5013582;28;20037;-74
2022/08/14 07:27:11;;;;;;;10.50;6.93;;;25.20;99.90;;;;;;4997430;28;20045;-71
2022/08/14 07:29:36;;;;;;;8.52;7.40;;;24.30;99.80;;;;;;5031744;28;20076;-71
2022/08/14 07:32:02;;;;;;;11.27;7.35;;;24.40;99.80;;;;;;5031723;28;20411;-71
2022/08/14 07:34:28;;;;;;;10.23;8.02;;;24.40;99.60;;;;;;4997598;28;20077;-72
2022/08/14 07:36:56;;;;;;;8.32;7.53;;;25.40;99.90;;;;;;4997610;28;20579;-72
2022/08/14 07:39:22;;;;;;;9.50;7.15;;;24.60;99.90;;;;;;5013728;28;20052;-72
2022/08/14 07:41:48;;;;;;;8.95;7.43;;;24.50;99.60;;;;;;5013856;28;20064;-72
2022/08/14 07:44:14;;;;;;;9.32;7.45;;;25.50;99.80;;;;;;5013496;28;20141;-72
2022/08/14 07:46:39;;;;;;;14.65;7.53;;;25.00;99.60;;;;;;4997329;28;20450;-71
2022/08/14 07:49:09;;;;;;;11.23;7.30;;;24.80;99.50;;;;;;5013672;28;20045;-72
2022/08/14 07:51:38;;;;;;;8.93;6.68;;;25.50;99.70;;;;;;5031343;28;20101;-72
2022/08/14 07:54:05;;;;;;;12.23;7.22;;;25.60;99.60;;;;;;5030898;28;20518;-72
2022/08/14 07:56:31;;;;;;;12.50;7.05;;;25.20;99.40;;;;;;5031429;28;20033;-71
2022/08/14 07:58:57;;;;;;;10.10;7.22;;;25.20;99.40;;;;;;5031490;28;20088;-71
2022/08/14 08:01:25;;;;;;;9.45;6.88;;;25.30;99.30;;;;;;4997484;28;20045;-71
2022/08/14 08:03:50;;;;;;;9.20;7.30;;;26.30;99.60;;;;;;4997235;28;20495;-71
2022/08/14 08:06:16;;;;;;;8.43;6.45;;;25.10;99.10;;;;;;5031123;28;20045;-71
2022/08/14 08:08:43;;;;;;;9.45;6.75;;;26.00;99.40;;;;;;5031296;28;20052;-72
2022/08/14 08:11:10;;;;;;;8.40;7.00;;;25.50;99.00;;;;;;5013438;28;20534;-72
2022/08/14 08:13:40;;;;;;;8.60;7.00;;;25.70;99.00;;;;;;4997318;28;20041;-72
2022/08/14 08:16:07;;;;;;;7.93;7.13;;;25.60;99.20;;;;;;5032976;28;20488;-72
2022/08/14 08:18:33;;;;;;;10.73;6.80;;;25.80;99.00;;;;;;5017218;28;20099;-72
2022/08/14 08:20:59;;;;;;;6.85;6.15;;;25.80;99.10;;;;;;5017270;28;20041;-72
2022/08/14 08:23:27;;;;;;;8.85;7.32;;;26.90;99.30;;;;;;5000989;28;20052;-72
2022/08/14 08:25:53;;;;;;;7.05;6.38;;;26.10;99.00;;;;;;5034727;28;20452;-72
2022/08/14 08:28:24;;;;;;;7.93;6.00;;;26.10;98.90;;;;;;5034860;28;20131;-72
2022/08/14 08:30:56;;;;;;;7.00;5.88;;;26.50;99.00;;;;;;5000673;28;20044;-72
2022/08/14 08:33:26;;;;;;;7.17;6.03;;;26.40;98.80;;;;;;5017146;28;20037;-71
2022/08/14 08:35:52;;;;;;;6.47;5.82;;;26.40;98.70;;;;;;5034596;28;20634;-71
2022/08/14 08:38:22;;;;;;;8.40;6.68;;;26.60;98.70;;;;;;5016909;28;20490;-71
2022/08/14 08:40:49;;;;;;;12.15;5.78;;;26.80;98.90;;;;;;5000800;28;20045;-71
2022/08/14 08:43:18;;;;;;;7.45;5.53;;;27.10;98.70;;;;;;5034810;28;20055;-72
2022/08/14 08:45:51;;;;;;;6.30;5.43;;;26.80;97.90;;;;;;5016711;28;20135;-72
2022/08/14 08:48:17;;;;;;;8.45;5.72;;;27.10;98.40;;;;;;5017118;28;20507;-72
2022/08/14 08:50:42;;;;;;;7.47;5.85;;;27.60;98.20;;;;;;5034609;28;20049;-72
2022/08/14 08:53:09;;;;;;;7.40;6.05;;;27.10;98.40;;;;;;5016737;28;20195;-72
2022/08/14 08:55:40;;;;;;;7.18;5.45;;;27.10;98.20;;;;;;5016733;28;20080;-72
2022/08/14 08:58:16;;;;;;;8.43;5.85;;;27.20;97.80;;;;;;5016535;28;20490;-72
2022/08/14 09:00:46;;;;;;;6.78;6.05;;;27.10;97.50;;;;;;5016790;28;20049;-72
2022/08/14 09:03:16;;;;;;;6.35;5.75;;;27.20;98.00;;;;;;5034399;28;20042;-72
2022/08/14 09:05:52;;;;;;;6.90;5.68;;;27.10;97.60;;;;;;5016586;28;20038;-72
2022/08/14 09:08:19;;;;;;;7.68;5.55;;;27.40;98.00;;;;;;5016470;28;20080;-72
2022/08/14 09:10:46;;;;;;;6.03;5.43;;;27.40;97.70;;;;;;5016468;28;20033;-72
2022/08/14 09:13:14;;;;;;;7.07;5.28;;;27.30;97.70;;;;;;5034061;28;20087;-72
2022/08/14 09:15:41;;;;;;;9.50;5.50;;;28.20;97.90;;;;;;5015958;28;20041;-72
2022/08/14 09:18:08;;;;;;;5.60;5.00;;;27.60;97.60;;;;;;5016174;28;20106;-72
2022/08/14 09:20:35;;;;;;;5.97;5.22;;;27.40;97.70;;;;;;5000006;28;20049;-73
2022/08/14 09:23:02;;;;;;;8.10;5.65;;;28.00;97.70;;;;;;5033976;28;20477;-72
2022/08/14 09:25:27;;;;;;;6.68;5.68;;;27.60;97.60;;;;;;5033517;28;20396;-72
2022/08/14 09:27:54;;;;;;;6.55;5.72;;;27.70;97.60;;;;;;5032603;28;20040;-73
2022/08/14 09:30:20;;;;;;;6.45;5.50;;;27.60;97.60;;;;;;5016222;28;20368;-72
2022/08/14 09:33:09;;;;;;;7.88;5.55;;;28.00;97.80;;;;;;5016109;28;20037;-74
2022/08/14 09:36:13;;;;;;;6.55;5.15;;;28.40;98.70;;;;;;5033349;28;20403;-72
2022/08/14 09:38:56;;;;;;;5.95;5.25;;;28.00;96.70;;;;;;5016105;28;20068;-73
2022/08/14 09:42:04;;;;;;;8.32;5.63;;;28.10;96.60;;;;;;4999512;28;20047;-72
2022/08/14 09:45:10;;;;;;;7.75;5.47;;;28.20;96.50;;;;;;4979153;28;20061;-73
2022/08/14 09:47:42;;;;;;;5.93;5.40;;;28.30;96.50;;;;;;5015894;28;20041;-73
2022/08/14 09:50:43;;;;;;;5.00;4.53;;;28.40;97.10;;;;;;4999431;28;20046;-72
2022/08/14 09:53:11;;;;;;;6.05;5.22;;;28.20;95.70;;;;;;5015597;28;20052;-72
2022/08/14 09:55:37;;;;;;;5.93;4.82;;;28.80;96.10;;;;;;5033158;28;20037;-72
2022/08/14 09:58:16;;;;;;;8.23;4.80;;;28.50;96.10;;;;;;5015536;28;20454;-73
2022/08/14 10:01:00;;;;;;;5.82;4.82;;;28.60;96.40;;;;;;5033219;28;20041;-72
2022/08/14 10:03:32;;;;;;;6.50;4.20;;;28.90;96.10;;;;;;5015656;28;20061;-73
2022/08/14 10:06:10;;;;;;;5.47;4.97;;;28.80;95.60;;;;;;5014923;28;20073;-72
2022/08/14 10:09:01;;;;;;;8.15;4.35;;;29.90;96.00;;;;;;4998902;28;20299;-72
2022/08/14 10:11:36;;;;;;;5.90;4.47;;;28.80;95.60;;;;;;5015283;28;20064;-72
2022/08/14 10:14:19;;;;;;;6.95;4.80;;;29.10;95.70;;;;;;4998693;28;20037;-72
2022/08/14 10:16:53;;;;;;;4.70;4.30;;;29.10;96.10;;;;;;5032912;28;20084;-72
2022/08/14 10:19:27;;;;;;;4.53;4.13;;;29.00;96.00;;;;;;5032932;28;20033;-72
2022/08/14 10:22:00;;;;;;;4.65;4.18;;;29.00;95.10;;;;;;5014943;28;20051;-73
2022/08/14 10:24:29;;;;;;;;;;;29.20;95.10;;;;;;5015030;28;20040;-72
2022/08/14 10:26:57;;;;;;;4.90;3.90;;;29.20;95.00;;;;;;5032575;28;19917;-73
2022/08/14 10:29:39;;;;;;;4.82;4.03;;;29.20;95.40;;;;;;5032732;28;20272;-72
2022/08/14 10:32:08;;;;;;;5.03;4.32;;;29.40;95.40;;;;;;5014872;28;20038;-72
2022/08/14 10:34:38;;;;;;;4.10;3.42;;;29.30;95.10;;;;;;5014346;28;20495;-72
2022/08/14 10:37:06;;;;;;;4.57;4.18;;;29.20;94.90;;;;;;5014626;28;20574;-72
2022/08/14 10:39:34;;;;;;;4.43;4.00;;;29.90;95.10;;;;;;5014455;28;20064;-72
2022/08/14 10:42:04;;;;;;;5.18;4.68;;;29.50;95.40;;;;;;5014968;28;20434;-73
2022/08/14 10:44:38;;;;;;;4.95;4.32;;;29.60;95.20;;;;;;5032035;28;20095;-72
2022/08/14 10:47:11;;;;;;;5.15;4.65;;;29.60;94.60;;;;;;5014602;28;20096;-72
2022/08/14 10:49:46;;;;;;;6.00;4.00;;;29.50;94.70;;;;;;5032511;28;20041;-72
2022/08/14 10:52:20;;;;;;;5.60;3.83;;;29.50;94.70;;;;;;5032268;28;20467;-73
2022/08/14 10:54:47;;;;;;;4.70;4.30;;;29.40;94.70;;;;;;5031922;28;20380;-72
2022/08/14 10:57:27;;;;;;;4.63;3.63;;;30.10;94.70;;;;;;5032366;28;20037;-72
2022/08/14 10:59:54;;;;;;;4.38;3.97;;;29.80;94.70;;;;;;5014988;28;20041;-73
2022/08/14 11:02:20;;;;;;;4.85;3.85;;;30.00;94.60;;;;;;5014585;28;20398;-72
2022/08/14 11:05:13;;;;;;;5.13;3.92;;;29.90;94.10;;;;;;5013969;28;20128;-72
2022/08/14 11:08:00;;;;;;;7.18;3.97;;;29.90;93.80;;;;;;5014433;28;20041;-72
2022/08/14 11:11:04;;;;;;;5.88;3.90;;;29.80;94.30;;;;;;5013610;28;20053;-72
2022/08/14 11:13:31;;;;;;;5.93;4.30;;;30.20;94.50;;;;;;5014418;28;20037;-72
2022/08/14 11:16:00;;;;;;;4.63;3.70;;;30.30;94.80;;;;;;5013908;28;20543;-72
2022/08/14 11:18:27;;;;;;;4.25;3.85;;;30.50;94.40;;;;;;5014231;28;20073;-72
2022/08/14 11:20:58;;;;;;;4.55;3.80;;;30.60;94.20;;;;;;4997639;28;20045;-72
2022/08/14 11:23:29;;;;;;;4.22;3.80;;;30.30;93.80;;;;;;5014185;28;20045;-73
2022/08/14 11:25:56;;;;;;;4.65;4.10;;;30.40;93.90;;;;;;5013594;28;20045;-72
2022/08/14 11:28:24;;;;;;;5.30;4.05;;;30.20;94.10;;;;;;5065612;23;20045;-75
2022/08/14 11:30:52;;;;;;;5.47;3.80;;;30.80;94.30;;;;;;5052314;28;20069;-75
2022/08/14 11:33:29;;;;;;;4.45;3.65;;;30.60;93.90;;;;;;5034412;28;20080;-75
2022/08/14 11:35:59;;;;;;;5.38;4.03;;;30.70;94.60;;;;;;5033865;28;20033;-75
2022/08/14 11:38:25;;;;;;;5.22;4.38;;;30.50;94.30;;;;;;5050536;28;20112;-75
2022/08/14 11:40:51;;;;;;;5.30;4.40;;;30.40;94.10;;;;;;5051808;28;20037;-75
2022/08/14 11:43:17;;;;;;;5.57;3.97;;;30.40;94.20;;;;;;5051694;28;20037;-75
2022/08/14 11:45:47;;;;;;;4.05;3.72;;;30.40;94.10;;;;;;5050102;28;20033;-75
2022/08/14 11:48:19;;;;;;;4.65;4.18;;;30.40;93.70;;;;;;5050677;28;20036;-75
2022/08/14 11:50:45;;;;;;;4.60;3.88;;;30.70;93.50;;;;;;5052589;28;20165;-75
2022/08/14 11:53:39;;;;;;;5.40;4.22;;;30.90;94.00;;;;;;5038310;28;20041;-75
2022/08/14 11:56:05;;;;;;;4.47;3.90;;;30.80;93.80;;;;;;5034967;28;20041;-75
2022/08/14 11:58:36;;;;;;;4.15;3.50;;;30.90;93.70;;;;;;5054322;28;20086;-75
2022/08/14 12:01:05;;;;;;;3.92;3.53;;;31.00;93.90;;;;;;5056051;28;20056;-75
2022/08/14 12:03:38;;;;;;;4.10;3.70;;;30.90;93.60;;;;;;5054552;28;20041;-75
2022/08/14 12:06:13;;;;;;;4.22;3.78;;;31.10;93.60;;;;;;5055393;28;20048;-75
2022/08/14 12:08:39;;;;;;;3.35;3.10;;;31.20;93.00;;;;;;5054375;28;20048;-75
2022/08/14 12:11:06;;;;;;;4.00;3.70;;;31.20;93.30;;;;;;5037665;28;20037;-75
2022/08/14 12:13:33;;;;;;;3.53;3.22;;;31.20;93.30;;;;;;5055745;28;20075;-75
2022/08/14 12:16:06;;;;;;;5.68;4.03;;;31.10;92.80;;;;;;5054021;28;20296;-75
2022/08/14 12:18:37;;;;;;;3.83;3.53;;;31.80;92.90;;;;;;5055357;28;20041;-75
2022/08/14 12:21:21;;;;;;;4.75;3.40;;;31.30;93.10;;;;;;5054126;28;20525;-75
2022/08/14 12:24:00;;;;;;;15.65;4.20;;;31.40;92.90;;;;;;5055304;28;20049;-73
2022/08/14 12:26:26;;;;;;;4.22;3.60;;;31.40;93.30;;;;;;5053869;28;20055;-73
2022/08/14 12:29:07;;;;;;;4.22;3.83;;;31.30;92.80;;;;;;5037562;28;20048;-73
2022/08/14 12:31:33;;;;;;;4.07;3.70;;;31.00;92.70;;;;;;5037414;28;20136;-75
2022/08/14 12:34:02;;;;;;;3.97;3.67;;;31.10;92.60;;;;;;5055017;28;20106;-75
2022/08/14 12:36:31;;;;;;;3.88;3.58;;;31.20;92.60;;;;;;5055484;28;20037;-74
2022/08/14 12:38:59;;;;;;;3.55;3.22;;;31.30;93.10;;;;;;5054117;28;20037;-74
2022/08/14 12:41:26;;;;;;;3.58;3.28;;;32.70;93.10;;;;;;5053816;28;20041;-74
2022/08/14 12:44:04;;;;;;;5.18;4.03;;;31.50;92.60;;;;;;5054637;28;20120;-74
2022/08/14 12:46:33;;;;;;;5.45;3.78;;;31.60;92.30;;;;;;5053795;28;20036;-75
2022/08/14 12:49:03;;;;;;;6.15;3.45;;;31.70;92.80;;;;;;5064451;28;20535;-76
2022/08/14 12:51:29;;;;;;;3.80;3.50;;;32.50;93.00;;;;;;5073473;28;20051;-75
2022/08/14 12:53:56;;;;;;;5.25;3.90;;;31.50;92.80;;;;;;5076485;28;20033;-75
2022/08/14 12:56:26;;;;;;;5.57;3.92;;;32.00;92.90;;;;;;5077892;28;20064;-75
2022/08/14 12:58:54;;;;;;;4.22;3.80;;;31.70;92.50;;;;;;5077627;28;20041;-74
2022/08/14 13:01:26;;;;;;;5.43;3.90;;;31.50;92.20;;;;;;5058548;28;20075;-74
2022/08/14 13:04:07;;;;;;;4.57;3.78;;;31.90;92.20;;;;;;5055964;28;20041;-74
2022/08/14 13:06:36;;;;;;;4.30;3.90;;;31.40;91.70;;;;;;5054486;28;20119;-75
2022/08/14 13:09:04;;;;;;;4.15;3.75;;;31.70;92.30;;;;;;5037946;28;20040;-75
2022/08/14 13:11:39;;;;;;;4.30;3.90;;;31.80;92.60;;;;;;5054938;28;20037;-75
2022/08/14 13:14:06;;;;;;;6.22;4.47;;;31.80;92.30;;;;;;5053676;28;20521;-74
2022/08/14 13:16:31;;;;;;;4.28;3.88;;;32.20;92.40;;;;;;5054830;28;20033;-74